sensor_id;sensor_type;location;lat;lon;timestamp;P1;P2;P0
73623;PMS5003;61921;53.226;-1.296;2023-01-28T00:00:23;66;60;
73623;PMS5003;61921;53.226;-1.296;2023-01-28T00:02:48;62;53;
73623;PMS5003;61921;53.226;-1.296;2023-01-28T00:05:14;59;56;
73623;PMS5003;61921;53.226;-1.296;2023-01-28T00:07:40;65;59;
73623;PMS5003;61921;53.226;-1.296;2023-01-28T00:10:05;61;58;
73623;PMS5003;61921;53.226;-1.296;2023-01-28T00:12:30;63;57;
73623;PMS5003;61921;53.226;-1.296;2023-01-28T00:14:56;58;53;
73623;PMS5003;61921;53.226;-1.296;2023-01-28T00:17:22;76;62;
73623;PMS5003;61921;53.226;-1.296;2023-01-28T00:19:47;63;61;
73623;PMS5003;61921;53.226;-1.296;2023-01-28T00:22:13;71;59;
73623;PMS5003;61921;53.226;-1.296;2023-01-28T00:24:38;66;62;
73623;PMS5003;61921;53.226;-1.296;2023-01-28T00:27:04;69;60;
73623;PMS5003;61921;53.226;-1.296;2023-01-28T00:29:29;75;62;
73623;PMS5003;61921;53.226;-1.296;2023-01-28T00:31:56;69;62;
73623;PMS5003;61921;53.226;-1.296;2023-01-28T00:34:21;61;60;
73623;PMS5003;61921;53.226;-1.296;2023-01-28T00:36:47;68;62;
73623;PMS5003;61921;53.226;-1.296;2023-01-28T00:39:13;52;51;
73623;PMS5003;61921;53.226;-1.296;2023-01-28T00:41:38;57;53;
73623;PMS5003;61921;53.226;-1.296;2023-01-28T00:44:03;62;58;
73623;PMS5003;61921;53.226;-1.296;2023-01-28T00:46:29;61;57;
73623;PMS5003;61921;53.226;-1.296;2023-01-28T00:48:54;59;56;
73623;PMS5003;61921;53.226;-1.296;2023-01-28T00:51:20;64;55;
73623;PMS5003;61921;53.226;-1.296;2023-01-28T00:53:45;51;50;
73623;PMS5003;61921;53.226;-1.296;2023-01-28T00:56:11;49;47;
73623;PMS5003;61921;53.226;-1.296;2023-01-28T00:58:36;57;54;
73623;PMS5003;61921;53.226;-1.296;2023-01-28T01:01:06;57;54;
73623;PMS5003;61921;53.226;-1.296;2023-01-28T01:03:26;57;53;
73623;PMS5003;61921;53.226;-1.296;2023-01-28T01:05:52;56;50;
73623;PMS5003;61921;53.226;-1.296;2023-01-28T01:08:17;56;55;
73623;PMS5003;61921;53.226;-1.296;2023-01-28T01:10:43;56;45;
73623;PMS5003;61921;53.226;-1.296;2023-01-28T01:13:08;50;47;
73623;PMS5003;61921;53.226;-1.296;2023-01-28T01:15:34;50;47;
73623;PMS5003;61921;53.226;-1.296;2023-01-28T01:17:59;42;40;
73623;PMS5003;61921;53.226;-1.296;2023-01-28T01:20:26;40;38;
73623;PMS5003;61921;53.226;-1.296;2023-01-28T01:22:50;42;38;
73623;PMS5003;61921;53.226;-1.296;2023-01-28T01:25:16;41;35;
73623;PMS5003;61921;53.226;-1.296;2023-01-28T01:27:40;41;40;
73623;PMS5003;61921;53.226;-1.296;2023-01-28T01:30:07;34;27;
73623;PMS5003;61921;53.226;-1.296;2023-01-28T01:32:32;35;31;
73623;PMS5003;61921;53.226;-1.296;2023-01-28T01:34:57;28;27;
73623;PMS5003;61921;53.226;-1.296;2023-01-28T01:37:22;31;26;
73623;PMS5003;61921;53.226;-1.296;2023-01-28T01:39:47;26;25;
73623;PMS5003;61921;53.226;-1.296;2023-01-28T01:42:13;34;32;
73623;PMS5003;61921;53.226;-1.296;2023-01-28T01:47:03;25;25;
73623;PMS5003;61921;53.226;-1.296;2023-01-28T01:49:29;24;21;
73623;PMS5003;61921;53.226;-1.296;2023-01-28T01:51:56;28;27;
73623;PMS5003;61921;53.226;-1.296;2023-01-28T01:54:19;24;21;
73623;PMS5003;61921;53.226;-1.296;2023-01-28T01:56:45;25;23;
73623;PMS5003;61921;53.226;-1.296;2023-01-28T01:59:11;26;24;
73623;PMS5003;61921;53.226;-1.296;2023-01-28T02:01:35;29;25;
73623;PMS5003;61921;53.226;-1.296;2023-01-28T02:04:03;25;20;
73623;PMS5003;61921;53.226;-1.296;2023-01-28T02:06:27;27;23;
73623;PMS5003;61921;53.226;-1.296;2023-01-28T02:08:53;20;19;
73623;PMS5003;61921;53.226;-1.296;2023-01-28T02:11:17;26;21;
73623;PMS5003;61921;53.226;-1.296;2023-01-28T02:13:43;29;26;
73623;PMS5003;61921;53.226;-1.296;2023-01-28T02:16:08;28;24;
73623;PMS5003;61921;53.226;-1.296;2023-01-28T02:18:34;21;21;
73623;PMS5003;61921;53.226;-1.296;2023-01-28T02:21:06;29;28;
73623;PMS5003;61921;53.226;-1.296;2023-01-28T02:23:28;23;23;
73623;PMS5003;61921;53.226;-1.296;2023-01-28T02:28:19;20;18;
73623;PMS5003;61921;53.226;-1.296;2023-01-28T02:30:43;20;18;
73623;PMS5003;61921;53.226;-1.296;2023-01-28T02:33:07;18;18;
73623;PMS5003;61921;53.226;-1.296;2023-01-28T02:35:34;25;21;
73623;PMS5003;61921;53.226;-1.296;2023-01-28T02:37:59;29;24;
73623;PMS5003;61921;53.226;-1.296;2023-01-28T02:40:24;17;17;
73623;PMS5003;61921;53.226;-1.296;2023-01-28T02:42:49;24;20;
73623;PMS5003;61921;53.226;-1.296;2023-01-28T02:45:15;23;21;
73623;PMS5003;61921;53.226;-1.296;2023-01-28T02:47:39;26;25;
73623;PMS5003;61921;53.226;-1.296;2023-01-28T02:50:06;26;23;
73623;PMS5003;61921;53.226;-1.296;2023-01-28T02:52:34;24;21;
73623;PMS5003;61921;53.226;-1.296;2023-01-28T02:54:59;24;21;
73623;PMS5003;61921;53.226;-1.296;2023-01-28T02:57:26;27;26;
73623;PMS5003;61921;53.226;-1.296;2023-01-28T02:59:48;27;26;
73623;PMS5003;61921;53.226;-1.296;2023-01-28T03:02:15;28;25;
73623;PMS5003;61921;53.226;-1.296;2023-01-28T03:04:41;30;29;
73623;PMS5003;61921;53.226;-1.296;2023-01-28T03:07:06;34;29;
73623;PMS5003;61921;53.226;-1.296;2023-01-28T03:09:30;34;29;
73623;PMS5003;61921;53.226;-1.296;2023-01-28T03:11:57;33;29;
73623;PMS5003;61921;53.226;-1.296;2023-01-28T03:14:21;30;28;
73623;PMS5003;61921;53.226;-1.296;2023-01-28T03:16:46;30;29;
73623;PMS5003;61921;53.226;-1.296;2023-01-28T03:19:12;27;26;
73623;PMS5003;61921;53.226;-1.296;2023-01-28T03:21:40;37;34;
73623;PMS5003;61921;53.226;-1.296;2023-01-28T03:24:04;33;32;
73623;PMS5003;61921;53.226;-1.296;2023-01-28T03:26:28;29;28;
73623;PMS5003;61921;53.226;-1.296;2023-01-28T03:28:54;40;39;
73623;PMS5003;61921;53.226;-1.296;2023-01-28T03:31:19;32;30;
73623;PMS5003;61921;53.226;-1.296;2023-01-28T03:33:44;33;29;
73623;PMS5003;61921;53.226;-1.296;2023-01-28T03:36:09;32;29;
73623;PMS5003;61921;53.226;-1.296;2023-01-28T03:38:34;31;28;
73623;PMS5003;61921;53.226;-1.296;2023-01-28T03:41:01;35;33;
73623;PMS5003;61921;53.226;-1.296;2023-01-28T03:43:25;32;29;
73623;PMS5003;61921;53.226;-1.296;2023-01-28T03:45:51;34;33;
73623;PMS5003;61921;53.226;-1.296;2023-01-28T03:48:16;34;33;
73623;PMS5003;61921;53.226;-1.296;2023-01-28T03:50:41;34;33;
73623;PMS5003;61921;53.226;-1.296;2023-01-28T03:53:07;34;33;
73623;PMS5003;61921;53.226;-1.296;2023-01-28T03:55:32;34;34;
73623;PMS5003;61921;53.226;-1.296;2023-01-28T03:57:58;37;33;
73623;PMS5003;61921;53.226;-1.296;2023-01-28T04:00:24;32;31;
73623;PMS5003;61921;53.226;-1.296;2023-01-28T04:02:49;41;38;
73623;PMS5003;61921;53.226;-1.296;2023-01-28T04:05:14;33;33;
73623;PMS5003;61921;53.226;-1.296;2023-01-28T04:07:40;42;38;
73623;PMS5003;61921;53.226;-1.296;2023-01-28T04:10:06;33;30;
73623;PMS5003;61921;53.226;-1.296;2023-01-28T04:12:31;36;32;
73623;PMS5003;61921;53.226;-1.296;2023-01-28T04:14:58;38;34;
73623;PMS5003;61921;53.226;-1.296;2023-01-28T04:17:22;40;34;
73623;PMS5003;61921;53.226;-1.296;2023-01-28T04:19:47;40;35;
73623;PMS5003;61921;53.226;-1.296;2023-01-28T04:22:13;34;33;
73623;PMS5003;61921;53.226;-1.296;2023-01-28T04:24:38;41;39;
73623;PMS5003;61921;53.226;-1.296;2023-01-28T04:27:03;45;38;
73623;PMS5003;61921;53.226;-1.296;2023-01-28T04:29:29;42;36;
73623;PMS5003;61921;53.226;-1.296;2023-01-28T04:31:55;39;35;
73623;PMS5003;61921;53.226;-1.296;2023-01-28T04:34:20;44;36;
73623;PMS5003;61921;53.226;-1.296;2023-01-28T04:36:45;44;40;
73623;PMS5003;61921;53.226;-1.296;2023-01-28T04:39:11;46;40;
73623;PMS5003;61921;53.226;-1.296;2023-01-28T04:41:36;46;45;
73623;PMS5003;61921;53.226;-1.296;2023-01-28T04:44:01;43;40;
73623;PMS5003;61921;53.226;-1.296;2023-01-28T04:46:27;48;44;
73623;PMS5003;61921;53.226;-1.296;2023-01-28T04:48:52;48;46;
73623;PMS5003;61921;53.226;-1.296;2023-01-28T04:51:17;53;47;
73623;PMS5003;61921;53.226;-1.296;2023-01-28T04:53:43;51;44;
73623;PMS5003;61921;53.226;-1.296;2023-01-28T04:56:08;47;46;
73623;PMS5003;61921;53.226;-1.296;2023-01-28T04:58:34;52;46;
73623;PMS5003;61921;53.226;-1.296;2023-01-28T05:00:59;51;44;
73623;PMS5003;61921;53.226;-1.296;2023-01-28T05:03:25;60;48;
73623;PMS5003;61921;53.226;-1.296;2023-01-28T05:05:51;53;46;
73623;PMS5003;61921;53.226;-1.296;2023-01-28T05:08:16;56;49;
73623;PMS5003;61921;53.226;-1.296;2023-01-28T05:10:41;48;48;
73623;PMS5003;61921;53.226;-1.296;2023-01-28T05:13:07;49;45;
73623;PMS5003;61921;53.226;-1.296;2023-01-28T05:15:32;51;45;
73623;PMS5003;61921;53.226;-1.296;2023-01-28T05:17:58;62;55;
73623;PMS5003;61921;53.226;-1.296;2023-01-28T05:20:23;56;51;
73623;PMS5003;61921;53.226;-1.296;2023-01-28T05:22:48;59;54;
73623;PMS5003;61921;53.226;-1.296;2023-01-28T05:25:14;61;53;
73623;PMS5003;61921;53.226;-1.296;2023-01-28T05:27:39;53;50;
73623;PMS5003;61921;53.226;-1.296;2023-01-28T05:30:05;64;56;
73623;PMS5003;61921;53.226;-1.296;2023-01-28T05:32:30;66;60;
73623;PMS5003;61921;53.226;-1.296;2023-01-28T05:34:55;60;56;
73623;PMS5003;61921;53.226;-1.296;2023-01-28T05:37:21;62;53;
73623;PMS5003;61921;53.226;-1.296;2023-01-28T05:39:46;65;59;
73623;PMS5003;61921;53.226;-1.296;2023-01-28T05:42:12;67;63;
73623;PMS5003;61921;53.226;-1.296;2023-01-28T05:44:37;63;57;
73623;PMS5003;61921;53.226;-1.296;2023-01-28T05:47:03;63;56;
73623;PMS5003;61921;53.226;-1.296;2023-01-28T05:49:28;74;66;
73623;PMS5003;61921;53.226;-1.296;2023-01-28T05:51:54;69;63;
73623;PMS5003;61921;53.226;-1.296;2023-01-28T05:54:19;72;60;
73623;PMS5003;61921;53.226;-1.296;2023-01-28T05:56:45;67;61;
73623;PMS5003;61921;53.226;-1.296;2023-01-28T05:59:11;68;61;
73623;PMS5003;61921;53.226;-1.296;2023-01-28T06:01:36;61;52;
73623;PMS5003;61921;53.226;-1.296;2023-01-28T06:04:02;63;58;
73623;PMS5003;61921;53.226;-1.296;2023-01-28T06:06:27;61;54;
73623;PMS5003;61921;53.226;-1.296;2023-01-28T06:08:52;68;55;
73623;PMS5003;61921;53.226;-1.296;2023-01-28T06:11:17;62;56;
73623;PMS5003;61921;53.226;-1.296;2023-01-28T06:13:43;55;54;
73623;PMS5003;61921;53.226;-1.296;2023-01-28T06:16:08;57;49;
73623;PMS5003;61921;53.226;-1.296;2023-01-28T06:18:34;68;57;
73623;PMS5003;61921;53.226;-1.296;2023-01-28T06:20:59;58;56;
73623;PMS5003;61921;53.226;-1.296;2023-01-28T06:23:24;48;45;
73623;PMS5003;61921;53.226;-1.296;2023-01-28T06:25:52;60;53;
73623;PMS5003;61921;53.226;-1.296;2023-01-28T06:28:15;59;54;
73623;PMS5003;61921;53.226;-1.296;2023-01-28T06:30:41;54;50;
73623;PMS5003;61921;53.226;-1.296;2023-01-28T06:33:06;56;50;
73623;PMS5003;61921;53.226;-1.296;2023-01-28T06:35:32;54;49;
73623;PMS5003;61921;53.226;-1.296;2023-01-28T06:37:57;50;45;
73623;PMS5003;61921;53.226;-1.296;2023-01-28T06:40:22;48;42;
73623;PMS5003;61921;53.226;-1.296;2023-01-28T06:42:47;51;46;
73623;PMS5003;61921;53.226;-1.296;2023-01-28T06:45:12;56;52;
73623;PMS5003;61921;53.226;-1.296;2023-01-28T06:47:38;55;45;
73623;PMS5003;61921;53.226;-1.296;2023-01-28T06:50:04;50;48;
73623;PMS5003;61921;53.226;-1.296;2023-01-28T06:52:29;52;46;
73623;PMS5003;61921;53.226;-1.296;2023-01-28T06:54:55;54;47;
73623;PMS5003;61921;53.226;-1.296;2023-01-28T06:57:21;51;46;
73623;PMS5003;61921;53.226;-1.296;2023-01-28T06:59:46;54;47;
73623;PMS5003;61921;53.226;-1.296;2023-01-28T07:02:11;45;43;
73623;PMS5003;61921;53.226;-1.296;2023-01-28T07:04:37;51;45;
73623;PMS5003;61921;53.226;-1.296;2023-01-28T07:07:02;49;48;
73623;PMS5003;61921;53.226;-1.296;2023-01-28T07:09:28;49;44;
73623;PMS5003;61921;53.226;-1.296;2023-01-28T07:11:53;55;48;
73623;PMS5003;61921;53.226;-1.296;2023-01-28T07:14:19;51;45;
73623;PMS5003;61921;53.226;-1.296;2023-01-28T07:16:45;54;48;
73623;PMS5003;61921;53.226;-1.296;2023-01-28T07:19:11;51;47;
73623;PMS5003;61921;53.226;-1.296;2023-01-28T07:21:36;47;43;
73623;PMS5003;61921;53.226;-1.296;2023-01-28T07:24:01;47;39;
73623;PMS5003;61921;53.226;-1.296;2023-01-28T07:26:27;43;43;
73623;PMS5003;61921;53.226;-1.296;2023-01-28T07:28:52;45;42;
73623;PMS5003;61921;53.226;-1.296;2023-01-28T07:31:18;43;41;
73623;PMS5003;61921;53.226;-1.296;2023-01-28T07:33:44;42;38;
73623;PMS5003;61921;53.226;-1.296;2023-01-28T07:36:09;41;36;
73623;PMS5003;61921;53.226;-1.296;2023-01-28T07:38:34;46;41;
73623;PMS5003;61921;53.226;-1.296;2023-01-28T07:41:00;44;41;
73623;PMS5003;61921;53.226;-1.296;2023-01-28T07:43:25;41;35;
73623;PMS5003;61921;53.226;-1.296;2023-01-28T07:45:51;47;42;
73623;PMS5003;61921;53.226;-1.296;2023-01-28T07:48:16;36;34;
73623;PMS5003;61921;53.226;-1.296;2023-01-28T07:50:41;44;40;
73623;PMS5003;61921;53.226;-1.296;2023-01-28T07:53:07;41;38;
73623;PMS5003;61921;53.226;-1.296;2023-01-28T07:55:32;48;46;
73623;PMS5003;61921;53.226;-1.296;2023-01-28T07:57:58;40;37;
73623;PMS5003;61921;53.226;-1.296;2023-01-28T08:00:23;50;43;
73623;PMS5003;61921;53.226;-1.296;2023-01-28T08:02:48;44;40;
73623;PMS5003;61921;53.226;-1.296;2023-01-28T08:05:14;40;39;
73623;PMS5003;61921;53.226;-1.296;2023-01-28T08:07:39;42;39;
73623;PMS5003;61921;53.226;-1.296;2023-01-28T08:10:05;46;44;
73623;PMS5003;61921;53.226;-1.296;2023-01-28T08:12:29;55;47;
73623;PMS5003;61921;53.226;-1.296;2023-01-28T08:14:55;52;47;
73623;PMS5003;61921;53.226;-1.296;2023-01-28T08:17:20;47;45;
73623;PMS5003;61921;53.226;-1.296;2023-01-28T08:19:46;49;48;
73623;PMS5003;61921;53.226;-1.296;2023-01-28T08:22:11;57;45;
73623;PMS5003;61921;53.226;-1.296;2023-01-28T08:24:36;52;47;
73623;PMS5003;61921;53.226;-1.296;2023-01-28T08:27:01;56;48;
73623;PMS5003;61921;53.226;-1.296;2023-01-28T08:29:27;61;46;
73623;PMS5003;61921;53.226;-1.296;2023-01-28T08:31:51;53;47;
73623;PMS5003;61921;53.226;-1.296;2023-01-28T08:34:16;50;45;
73623;PMS5003;61921;53.226;-1.296;2023-01-28T08:36:42;53;48;
73623;PMS5003;61921;53.226;-1.296;2023-01-28T08:39:07;45;42;
73623;PMS5003;61921;53.226;-1.296;2023-01-28T08:41:32;49;46;
73623;PMS5003;61921;53.226;-1.296;2023-01-28T08:43:58;55;49;
73623;PMS5003;61921;53.226;-1.296;2023-01-28T08:46:23;51;48;
73623;PMS5003;61921;53.226;-1.296;2023-01-28T08:48:49;44;41;
73623;PMS5003;61921;53.226;-1.296;2023-01-28T08:51:14;44;43;
73623;PMS5003;61921;53.226;-1.296;2023-01-28T08:53:40;44;41;
73623;PMS5003;61921;53.226;-1.296;2023-01-28T08:56:06;45;40;
73623;PMS5003;61921;53.226;-1.296;2023-01-28T08:58:31;40;36;
73623;PMS5003;61921;53.226;-1.296;2023-01-28T09:00:57;48;44;
73623;PMS5003;61921;53.226;-1.296;2023-01-28T09:03:22;49;42;
73623;PMS5003;61921;53.226;-1.296;2023-01-28T09:05:47;49;46;
73623;PMS5003;61921;53.226;-1.296;2023-01-28T09:08:13;54;49;
73623;PMS5003;61921;53.226;-1.296;2023-01-28T09:10:38;50;45;
73623;PMS5003;61921;53.226;-1.296;2023-01-28T09:13:04;44;43;
73623;PMS5003;61921;53.226;-1.296;2023-01-28T09:15:28;49;44;
73623;PMS5003;61921;53.226;-1.296;2023-01-28T09:17:56;47;43;
73623;PMS5003;61921;53.226;-1.296;2023-01-28T09:20:19;51;45;
73623;PMS5003;61921;53.226;-1.296;2023-01-28T09:22:44;61;56;
73623;PMS5003;61921;53.226;-1.296;2023-01-28T09:25:10;50;47;
73623;PMS5003;61921;53.226;-1.296;2023-01-28T09:27:36;42;42;
73623;PMS5003;61921;53.226;-1.296;2023-01-28T09:30:01;50;46;
73623;PMS5003;61921;53.226;-1.296;2023-01-28T09:32:26;69;54;
73623;PMS5003;61921;53.226;-1.296;2023-01-28T09:34:52;72;60;
73623;PMS5003;61921;53.226;-1.296;2023-01-28T09:37:17;59;51;
73623;PMS5003;61921;53.226;-1.296;2023-01-28T09:39:43;54;49;
73623;PMS5003;61921;53.226;-1.296;2023-01-28T09:44:37;53;47;
73623;PMS5003;61921;53.226;-1.296;2023-01-28T09:47:00;43;40;
73623;PMS5003;61921;53.226;-1.296;2023-01-28T09:49:26;53;46;
73623;PMS5003;61921;53.226;-1.296;2023-01-28T09:51:51;47;43;
73623;PMS5003;61921;53.226;-1.296;2023-01-28T09:54:19;57;54;
73623;PMS5003;61921;53.226;-1.296;2023-01-28T09:56:41;49;43;
73623;PMS5003;61921;53.226;-1.296;2023-01-28T09:59:12;43;38;
73623;PMS5003;61921;53.226;-1.296;2023-01-28T10:01:35;39;39;
73623;PMS5003;61921;53.226;-1.296;2023-01-28T10:03:58;55;43;
73623;PMS5003;61921;53.226;-1.296;2023-01-28T10:06:25;50;47;
73623;PMS5003;61921;53.226;-1.296;2023-01-28T10:09:00;43;41;
73623;PMS5003;61921;53.226;-1.296;2023-01-28T10:11:15;67;60;
73623;PMS5003;61921;53.226;-1.296;2023-01-28T10:13:40;50;43;
73623;PMS5003;61921;53.226;-1.296;2023-01-28T10:16:06;48;42;
73623;PMS5003;61921;53.226;-1.296;2023-01-28T10:18:32;66;57;
73623;PMS5003;61921;53.226;-1.296;2023-01-28T10:20:56;59;56;
73623;PMS5003;61921;53.226;-1.296;2023-01-28T10:23:21;64;57;
73623;PMS5003;61921;53.226;-1.296;2023-01-28T10:25:46;47;43;
73623;PMS5003;61921;53.226;-1.296;2023-01-28T10:28:18;56;48;
73623;PMS5003;61921;53.226;-1.296;2023-01-28T10:30:37;50;40;
73623;PMS5003;61921;53.226;-1.296;2023-01-28T10:33:03;50;43;
73623;PMS5003;61921;53.226;-1.296;2023-01-28T10:35:28;56;54;
73623;PMS5003;61921;53.226;-1.296;2023-01-28T10:37:53;41;37;
73623;PMS5003;61921;53.226;-1.296;2023-01-28T10:40:18;77;69;
73623;PMS5003;61921;53.226;-1.296;2023-01-28T10:42:44;84;77;
73623;PMS5003;61921;53.226;-1.296;2023-01-28T10:45:14;51;45;
73623;PMS5003;61921;53.226;-1.296;2023-01-28T10:47:37;36;34;
73623;PMS5003;61921;53.226;-1.296;2023-01-28T10:50:00;40;38;
73623;PMS5003;61921;53.226;-1.296;2023-01-28T10:52:25;35;34;
73623;PMS5003;61921;53.226;-1.296;2023-01-28T10:57:16;29;27;
73623;PMS5003;61921;53.226;-1.296;2023-01-28T10:59:41;37;32;
73623;PMS5003;61921;53.226;-1.296;2023-01-28T11:04:33;31;29;
73623;PMS5003;61921;53.226;-1.296;2023-01-28T11:06:59;41;37;
73623;PMS5003;61921;53.226;-1.296;2023-01-28T11:09:24;29;27;
73623;PMS5003;61921;53.226;-1.296;2023-01-28T11:11:48;30;26;
73623;PMS5003;61921;53.226;-1.296;2023-01-28T11:14:19;32;27;
73623;PMS5003;61921;53.226;-1.296;2023-01-28T11:16:39;30;26;
73623;PMS5003;61921;53.226;-1.296;2023-01-28T11:19:05;32;30;
73623;PMS5003;61921;53.226;-1.296;2023-01-28T11:21:31;33;30;
73623;PMS5003;61921;53.226;-1.296;2023-01-28T11:23:58;32;26;
73623;PMS5003;61921;53.226;-1.296;2023-01-28T11:26:23;27;26;
73623;PMS5003;61921;53.226;-1.296;2023-01-28T11:28:47;28;27;
73623;PMS5003;61921;53.226;-1.296;2023-01-28T11:31:13;27;27;
73623;PMS5003;61921;53.226;-1.296;2023-01-28T11:33:42;36;33;
73623;PMS5003;61921;53.226;-1.296;2023-01-28T11:36:05;30;28;
73623;PMS5003;61921;53.226;-1.296;2023-01-28T11:38:29;27;25;
73623;PMS5003;61921;53.226;-1.296;2023-01-28T11:40:56;27;25;
73623;PMS5003;61921;53.226;-1.296;2023-01-28T11:43:21;27;22;
73623;PMS5003;61921;53.226;-1.296;2023-01-28T11:45:47;28;25;
73623;PMS5003;61921;53.226;-1.296;2023-01-28T11:48:14;25;23;
73623;PMS5003;61921;53.226;-1.296;2023-01-28T11:50:38;25;23;
73623;PMS5003;61921;53.226;-1.296;2023-01-28T11:53:09;27;21;
73623;PMS5003;61921;53.226;-1.296;2023-01-28T11:57:55;33;28;
73623;PMS5003;61921;53.226;-1.296;2023-01-28T12:00:25;33;29;
73623;PMS5003;61921;53.226;-1.296;2023-01-28T12:02:46;24;20;
73623;PMS5003;61921;53.226;-1.296;2023-01-28T12:05:18;20;19;
73623;PMS5003;61921;53.226;-1.296;2023-01-28T12:07:36;25;21;
73623;PMS5003;61921;53.226;-1.296;2023-01-28T12:10:02;21;20;
73623;PMS5003;61921;53.226;-1.296;2023-01-28T12:17:19;24;23;
73623;PMS5003;61921;53.226;-1.296;2023-01-28T12:19:45;23;22;
73623;PMS5003;61921;53.226;-1.296;2023-01-28T12:22:11;21;19;
73623;PMS5003;61921;53.226;-1.296;2023-01-28T12:24:37;21;18;
73623;PMS5003;61921;53.226;-1.296;2023-01-28T12:26:58;18;16;
73623;PMS5003;61921;53.226;-1.296;2023-01-28T12:29:25;18;18;
73623;PMS5003;61921;53.226;-1.296;2023-01-28T12:31:51;18;18;
73623;PMS5003;61921;53.226;-1.296;2023-01-28T12:36:41;14;14;
73623;PMS5003;61921;53.226;-1.296;2023-01-28T12:39:08;13;13;
73623;PMS5003;61921;53.226;-1.296;2023-01-28T12:41:29;20;17;
73623;PMS5003;61921;53.226;-1.296;2023-01-28T12:43:55;16;16;
73623;PMS5003;61921;53.226;-1.296;2023-01-28T12:46:25;13;13;
73623;PMS5003;61921;53.226;-1.296;2023-01-28T12:48:45;14;14;
73623;PMS5003;61921;53.226;-1.296;2023-01-28T12:51:11;15;15;
73623;PMS5003;61921;53.226;-1.296;2023-01-28T12:53:37;16;14;
73623;PMS5003;61921;53.226;-1.296;2023-01-28T12:56:02;20;19;
73623;PMS5003;61921;53.226;-1.296;2023-01-28T12:58:31;18;17;
73623;PMS5003;61921;53.226;-1.296;2023-01-28T13:00:53;18;15;
73623;PMS5003;61921;53.226;-1.296;2023-01-28T13:03:18;15;15;
73623;PMS5003;61921;53.226;-1.296;2023-01-28T13:05:43;13;13;
73623;PMS5003;61921;53.226;-1.296;2023-01-28T13:08:09;10;9;
73623;PMS5003;61921;53.226;-1.296;2023-01-28T13:10:35;10;10;
73623;PMS5003;61921;53.226;-1.296;2023-01-28T13:12:59;10;9;
73623;PMS5003;61921;53.226;-1.296;2023-01-28T13:15:24;9;9;
73623;PMS5003;61921;53.226;-1.296;2023-01-28T13:17:53;11;11;
73623;PMS5003;61921;53.226;-1.296;2023-01-28T13:20:15;13;13;
73623;PMS5003;61921;53.226;-1.296;2023-01-28T13:22:42;11;10;
73623;PMS5003;61921;53.226;-1.296;2023-01-28T13:25:12;8;7;
73623;PMS5003;61921;53.226;-1.296;2023-01-28T13:27:31;7;6;
73623;PMS5003;61921;53.226;-1.296;2023-01-28T13:30:01;12;7;
73623;PMS5003;61921;53.226;-1.296;2023-01-28T13:32:25;8;7;
73623;PMS5003;61921;53.226;-1.296;2023-01-28T13:37:16;5;5;
73623;PMS5003;61921;53.226;-1.296;2023-01-28T13:39:38;9;9;
73623;PMS5003;61921;53.226;-1.296;2023-01-28T13:42:09;8;8;
73623;PMS5003;61921;53.226;-1.296;2023-01-28T13:44:30;8;8;
73623;PMS5003;61921;53.226;-1.296;2023-01-28T13:46:56;7;6;
73623;PMS5003;61921;53.226;-1.296;2023-01-28T13:49:21;6;6;
73623;PMS5003;61921;53.226;-1.296;2023-01-28T13:51:52;7;7;
73623;PMS5003;61921;53.226;-1.296;2023-01-28T13:54:12;8;8;
73623;PMS5003;61921;53.226;-1.296;2023-01-28T13:56:39;8;7;
73623;PMS5003;61921;53.226;-1.296;2023-01-28T13:59:10;7;7;
73623;PMS5003;61921;53.226;-1.296;2023-01-28T14:01:31;7;7;
73623;PMS5003;61921;53.226;-1.296;2023-01-28T14:03:57;7;7;
73623;PMS5003;61921;53.226;-1.296;2023-01-28T14:06:22;6;6;
73623;PMS5003;61921;53.226;-1.296;2023-01-28T14:08:53;5;5;
73623;PMS5003;61921;53.226;-1.296;2023-01-28T14:11:14;5;5;
73623;PMS5003;61921;53.226;-1.296;2023-01-28T14:13:39;6;6;
73623;PMS5003;61921;53.226;-1.296;2023-01-28T14:16:04;7;6;
73623;PMS5003;61921;53.226;-1.296;2023-01-28T14:18:26;6;6;
73623;PMS5003;61921;53.226;-1.296;2023-01-28T14:20:52;9;6;
73623;PMS5003;61921;53.226;-1.296;2023-01-28T14:23:17;7;7;
73623;PMS5003;61921;53.226;-1.296;2023-01-28T14:25:46;7;7;
73623;PMS5003;61921;53.226;-1.296;2023-01-28T14:28:08;12;8;
73623;PMS5003;61921;53.226;-1.296;2023-01-28T14:30:40;9;8;
73623;PMS5003;61921;53.226;-1.296;2023-01-28T14:32:59;10;10;
73623;PMS5003;61921;53.226;-1.296;2023-01-28T14:35:27;10;9;
73623;PMS5003;61921;53.226;-1.296;2023-01-28T14:37:50;8;8;
73623;PMS5003;61921;53.226;-1.296;2023-01-28T14:40:15;9;9;
73623;PMS5003;61921;53.226;-1.296;2023-01-28T14:42:41;10;10;
73623;PMS5003;61921;53.226;-1.296;2023-01-28T14:45:10;11;9;
73623;PMS5003;61921;53.226;-1.296;2023-01-28T14:47:35;10;10;
73623;PMS5003;61921;53.226;-1.296;2023-01-28T14:50:03;14;11;
73623;PMS5003;61921;53.226;-1.296;2023-01-28T14:52:29;12;12;
73623;PMS5003;61921;53.226;-1.296;2023-01-28T14:54:51;15;12;
73623;PMS5003;61921;53.226;-1.296;2023-01-28T14:57:18;12;12;
73623;PMS5003;61921;53.226;-1.296;2023-01-28T14:59:40;12;12;
73623;PMS5003;61921;53.226;-1.296;2023-01-28T15:02:11;10;10;
73623;PMS5003;61921;53.226;-1.296;2023-01-28T15:04:30;11;10;
73623;PMS5003;61921;53.226;-1.296;2023-01-28T15:06:56;12;12;
73623;PMS5003;61921;53.226;-1.296;2023-01-28T15:09:21;13;11;
73623;PMS5003;61921;53.226;-1.296;2023-01-28T15:11:46;12;12;
73623;PMS5003;61921;53.226;-1.296;2023-01-28T15:14:12;12;12;
73623;PMS5003;61921;53.226;-1.296;2023-01-28T15:16:37;12;12;
73623;PMS5003;61921;53.226;-1.296;2023-01-28T15:19:05;10;10;
73623;PMS5003;61921;53.226;-1.296;2023-01-28T15:21:28;12;12;
73623;PMS5003;61921;53.226;-1.296;2023-01-28T15:23:54;12;12;
73623;PMS5003;61921;53.226;-1.296;2023-01-28T15:26:19;11;11;
73623;PMS5003;61921;53.226;-1.296;2023-01-28T15:28:44;11;10;
73623;PMS5003;61921;53.226;-1.296;2023-01-28T15:33:34;9;9;
73623;PMS5003;61921;53.226;-1.296;2023-01-28T15:36:00;12;10;
73623;PMS5003;61921;53.226;-1.296;2023-01-28T15:38:26;15;11;
73623;PMS5003;61921;53.226;-1.296;2023-01-28T15:40:53;11;11;
73623;PMS5003;61921;53.226;-1.296;2023-01-28T15:43:17;10;10;
73623;PMS5003;61921;53.226;-1.296;2023-01-28T15:45:43;10;10;
73623;PMS5003;61921;53.226;-1.296;2023-01-28T15:48:09;10;10;
73623;PMS5003;61921;53.226;-1.296;2023-01-28T15:50:33;11;10;
73623;PMS5003;61921;53.226;-1.296;2023-01-28T15:52:58;13;11;
73623;PMS5003;61921;53.226;-1.296;2023-01-28T15:57:49;10;10;
73623;PMS5003;61921;53.226;-1.296;2023-01-28T16:00:17;10;10;
73623;PMS5003;61921;53.226;-1.296;2023-01-28T16:02:42;12;11;
73623;PMS5003;61921;53.226;-1.296;2023-01-28T16:05:06;14;13;
73623;PMS5003;61921;53.226;-1.296;2023-01-28T16:07:31;10;9;
73623;PMS5003;61921;53.226;-1.296;2023-01-28T16:09:57;9;9;
73623;PMS5003;61921;53.226;-1.296;2023-01-28T16:12:22;11;11;
73623;PMS5003;61921;53.226;-1.296;2023-01-28T16:14:48;9;8;
73623;PMS5003;61921;53.226;-1.296;2023-01-28T16:17:14;11;10;
73623;PMS5003;61921;53.226;-1.296;2023-01-28T16:19:39;11;11;